sensor_id;sensor_type;location;lat;lon;timestamp;pressure;altitude;pressure_sealevel;temperature;humidity
6532;BME280;3299;42.004;24.868;2023-01-04T00:00:20;99011.03;;;8.42;84.83
6532;BME280;3299;42.004;24.868;2023-01-04T00:02:45;99007.72;;;8.40;85.20
6532;BME280;3299;42.004;24.868;2023-01-04T00:05:11;99065.09;;;8.77;85.34
6532;BME280;3299;42.004;24.868;2023-01-04T00:07:36;99079.97;;;8.89;85.21
6532;BME280;3299;42.004;24.868;2023-01-04T00:10:02;99076.09;;;8.81;86.08
6532;BME280;3299;42.004;24.868;2023-01-04T00:12:27;99006.72;;;8.42;85.96
6532;BME280;3299;42.004;24.868;2023-01-04T00:14:52;99017.47;;;8.50;85.82
6532;BME280;3299;42.004;24.868;2023-01-04T00:17:18;99055.41;;;8.65;86.25
6532;BME280;3299;42.004;24.868;2023-01-04T00:19:43;99021.22;;;8.45;86.29
6532;BME280;3299;42.004;24.868;2023-01-04T00:22:09;99079.59;;;8.80;86.45
6532;BME280;3299;42.004;24.868;2023-01-04T00:24:34;99079.06;;;8.73;84.56
6532;BME280;3299;42.004;24.868;2023-01-04T00:27:00;99081.50;;;8.76;84.41
6532;BME280;3299;42.004;24.868;2023-01-04T00:29:25;99032.88;;;8.52;84.06
6532;BME280;3299;42.004;24.868;2023-01-04T00:31:50;99017.03;;;8.42;84.06
6532;BME280;3299;42.004;24.868;2023-01-04T00:34:17;99085.13;;;8.89;84.12
6532;BME280;3299;42.004;24.868;2023-01-04T00:36:43;99053.25;;;8.73;83.65
6532;BME280;3299;42.004;24.868;2023-01-04T00:39:11;99017.72;;;8.46;85.17
6532;BME280;3299;42.004;24.868;2023-01-04T00:44:07;99022.72;;;8.15;90.55
6532;BME280;3299;42.004;24.868;2023-01-04T00:46:33;99075.13;;;8.49;91.07
6532;BME280;3299;42.004;24.868;2023-01-04T00:48:59;98993.66;;;7.94;91.68
6532;BME280;3299;42.004;24.868;2023-01-04T00:51:25;99084.09;;;8.42;93.26
6532;BME280;3299;42.004;24.868;2023-01-04T00:53:51;99022.84;;;8.12;94.06
6532;BME280;3299;42.004;24.868;2023-01-04T00:56:17;99094.84;;;8.50;91.89
6532;BME280;3299;42.004;24.868;2023-01-04T00:58:43;99076.88;;;8.32;92.72
6532;BME280;3299;42.004;24.868;2023-01-04T01:01:09;99096.91;;;8.44;88.76
6532;BME280;3299;42.004;24.868;2023-01-04T01:03:34;99101.22;;;8.43;87.58
6532;BME280;3299;42.004;24.868;2023-01-04T01:06:04;99093.19;;;8.49;87.32
6532;BME280;3299;42.004;24.868;2023-01-04T01:08:31;99084.69;;;8.47;88.80
6532;BME280;3299;42.004;24.868;2023-01-04T01:11:02;99114.34;;;8.56;89.84
6532;BME280;3299;42.004;24.868;2023-01-04T01:13:28;99090.75;;;8.29;92.13
6532;BME280;3299;42.004;24.868;2023-01-04T01:15:54;99054.75;;;8.09;89.76
6532;BME280;3299;42.004;24.868;2023-01-04T01:18:19;99063.41;;;8.08;91.75
6532;BME280;3299;42.004;24.868;2023-01-04T01:20:45;99046.56;;;8.01;90.92
6532;BME280;3299;42.004;24.868;2023-01-04T01:23:12;99053.09;;;8.08;87.89
6532;BME280;3299;42.004;24.868;2023-01-04T01:25:38;99047.03;;;8.09;87.99
6532;BME280;3299;42.004;24.868;2023-01-04T01:28:04;99042.91;;;8.05;87.64
6532;BME280;3299;42.004;24.868;2023-01-04T01:30:29;99081.44;;;8.27;89.03
6532;BME280;3299;42.004;24.868;2023-01-04T01:32:54;99030.25;;;8.01;89.00
6532;BME280;3299;42.004;24.868;2023-01-04T01:35:20;99086.06;;;8.37;88.55
6532;BME280;3299;42.004;24.868;2023-01-04T01:37:45;99073.41;;;8.14;90.84
6532;BME280;3299;42.004;24.868;2023-01-04T01:40:11;99071.75;;;8.13;89.93
6532;BME280;3299;42.004;24.868;2023-01-04T01:42:36;99031.31;;;7.97;88.71
6532;BME280;3299;42.004;24.868;2023-01-04T01:45:05;99037.25;;;7.99;88.20
6532;BME280;3299;42.004;24.868;2023-01-04T01:47:46;99072.72;;;8.29;87.80
6532;BME280;3299;42.004;24.868;2023-01-04T01:50:21;99044.72;;;8.22;88.37
6532;BME280;3299;42.004;24.868;2023-01-04T01:52:50;99012.75;;;7.90;90.85
6532;BME280;3299;42.004;24.868;2023-01-04T01:55:18;98973.53;;;7.67;91.99
6532;BME280;3299;42.004;24.868;2023-01-04T01:57:45;99076.72;;;8.16;92.89
6532;BME280;3299;42.004;24.868;2023-01-04T02:00:13;99055.22;;;8.00;92.46
6532;BME280;3299;42.004;24.868;2023-01-04T02:05:26;99011.97;;;7.71;92.51
6532;BME280;3299;42.004;24.868;2023-01-04T02:07:53;99067.53;;;7.94;91.41
6532;BME280;3299;42.004;24.868;2023-01-04T02:10:19;98971.84;;;7.49;90.03
6532;BME280;3299;42.004;24.868;2023-01-04T02:12:45;99000.13;;;7.67;89.65
6532;BME280;3299;42.004;24.868;2023-01-04T02:15:11;99078.56;;;8.14;89.42
6532;BME280;3299;42.004;24.868;2023-01-04T02:17:48;99084.69;;;8.12;89.09
6532;BME280;3299;42.004;24.868;2023-01-04T02:36:31;99035.34;;;7.67;96.19
6532;BME280;3299;42.004;24.868;2023-01-04T02:41:51;99086.97;;;7.82;95.49
6532;BME280;3299;42.004;24.868;2023-01-04T02:44:27;99087.53;;;7.70;93.70
6532;BME280;3299;42.004;24.868;2023-01-04T02:47:34;99026.41;;;7.38;92.26
6532;BME280;3299;42.004;24.868;2023-01-04T02:53:15;99091.16;;;7.85;90.98
6532;BME280;3299;42.004;24.868;2023-01-04T02:58:43;99107.56;;;7.82;90.51
6532;BME280;3299;42.004;24.868;2023-01-04T03:07:43;99112.81;;;7.81;90.45
6532;BME280;3299;42.004;24.868;2023-01-04T03:10:41;99107.66;;;7.81;91.72
6532;BME280;3299;42.004;24.868;2023-01-04T03:15:48;99057.56;;;7.32;91.93
6532;BME280;3299;42.004;24.868;2023-01-04T03:18:22;99108.38;;;7.66;91.64
6532;BME280;3299;42.004;24.868;2023-01-04T03:20:52;99047.56;;;7.26;91.63
6532;BME280;3299;42.004;24.868;2023-01-04T03:23:22;99051.94;;;7.24;92.21
6532;BME280;3299;42.004;24.868;2023-01-04T03:26:13;99105.66;;;7.50;92.60
6532;BME280;3299;42.004;24.868;2023-01-04T03:29:04;99064.31;;;7.16;92.98
6532;BME280;3299;42.004;24.868;2023-01-04T03:32:30;99118.53;;;7.50;93.10
6532;BME280;3299;42.004;24.868;2023-01-04T03:35:19;99064.31;;;7.16;92.90
6532;BME280;3299;42.004;24.868;2023-01-04T03:37:55;99065.97;;;7.17;93.15
6532;BME280;3299;42.004;24.868;2023-01-04T03:41:19;99064.44;;;7.13;93.93
6532;BME280;3299;42.004;24.868;2023-01-04T03:44:12;99060.28;;;7.11;93.87
6532;BME280;3299;42.004;24.868;2023-01-04T03:47:12;99060.72;;;7.00;93.59
6532;BME280;3299;42.004;24.868;2023-01-04T03:50:12;99100.06;;;7.22;94.06
6532;BME280;3299;42.004;24.868;2023-01-04T03:52:39;99054.34;;;7.09;93.68
6532;BME280;3299;42.004;24.868;2023-01-04T03:55:06;99057.06;;;7.06;93.77
6532;BME280;3299;42.004;24.868;2023-01-04T03:57:33;99053.28;;;6.94;94.83
6532;BME280;3299;42.004;24.868;2023-01-04T04:00:07;99002.91;;;6.70;95.11
6532;BME280;3299;42.004;24.868;2023-01-04T04:02:34;99048.84;;;6.98;94.98
6532;BME280;3299;42.004;24.868;2023-01-04T04:05:00;99082.69;;;7.27;94.66
6532;BME280;3299;42.004;24.868;2023-01-04T04:07:44;99007.09;;;6.73;93.85
6532;BME280;3299;42.004;24.868;2023-01-04T04:10:27;99097.28;;;7.27;93.98
6532;BME280;3299;42.004;24.868;2023-01-04T04:12:53;99101.59;;;7.26;93.39
6532;BME280;3299;42.004;24.868;2023-01-04T04:15:18;99117.59;;;7.33;93.82
6532;BME280;3299;42.004;24.868;2023-01-04T04:17:44;99059.91;;;7.00;94.12
6532;BME280;3299;42.004;24.868;2023-01-04T04:20:10;99114.97;;;7.34;93.82
6532;BME280;3299;42.004;24.868;2023-01-04T04:22:35;99043.25;;;6.88;94.30
6532;BME280;3299;42.004;24.868;2023-01-04T04:25:01;99052.31;;;6.97;93.73
6532;BME280;3299;42.004;24.868;2023-01-04T04:27:26;99056.56;;;6.98;93.44
6532;BME280;3299;42.004;24.868;2023-01-04T04:29:51;99099.50;;;7.16;94.19
6532;BME280;3299;42.004;24.868;2023-01-04T04:32:17;99072.63;;;7.03;94.87
6532;BME280;3299;42.004;24.868;2023-01-04T04:34:42;99056.63;;;6.96;94.63
6532;BME280;3299;42.004;24.868;2023-01-04T04:37:08;99101.81;;;7.22;94.24
6532;BME280;3299;42.004;24.868;2023-01-04T04:39:33;99063.44;;;6.97;93.29
6532;BME280;3299;42.004;24.868;2023-01-04T04:41:59;99121.22;;;7.29;93.78
6532;BME280;3299;42.004;24.868;2023-01-04T04:44:24;99119.94;;;7.19;93.59
6532;BME280;3299;42.004;24.868;2023-01-04T04:46:49;99136.09;;;7.22;94.00
6532;BME280;3299;42.004;24.868;2023-01-04T04:49:16;99133.31;;;7.27;94.20
6532;BME280;3299;42.004;24.868;2023-01-04T04:51:43;99090.84;;;6.98;94.25
6532;BME280;3299;42.004;24.868;2023-01-04T04:54:10;99137.63;;;7.26;94.90
6532;BME280;3299;42.004;24.868;2023-01-04T04:56:38;99133.72;;;7.18;95.30
6532;BME280;3299;42.004;24.868;2023-01-04T04:59:04;99037.06;;;6.54;95.11
6532;BME280;3299;42.004;24.868;2023-01-04T05:01:30;99137.31;;;7.14;94.27
6532;BME280;3299;42.004;24.868;2023-01-04T05:03:55;99142.47;;;7.14;94.37
6532;BME280;3299;42.004;24.868;2023-01-04T05:06:21;99122.69;;;6.96;94.98
6532;BME280;3299;42.004;24.868;2023-01-04T05:08:46;99089.31;;;6.74;94.77
6532;BME280;3299;42.004;24.868;2023-01-04T05:11:12;99095.81;;;6.83;94.37
6532;BME280;3299;42.004;24.868;2023-01-04T05:13:38;99156.94;;;7.16;95.02
6532;BME280;3299;42.004;24.868;2023-01-04T05:16:05;99113.63;;;6.87;95.03
6532;BME280;3299;42.004;24.868;2023-01-04T05:18:31;99124.28;;;6.98;94.46
6532;BME280;3299;42.004;24.868;2023-01-04T05:20:56;99147.06;;;7.07;94.65
6532;BME280;3299;42.004;24.868;2023-01-04T05:23:21;99114.47;;;6.88;94.81
6532;BME280;3299;42.004;24.868;2023-01-04T05:25:56;99117.22;;;6.83;94.79
6532;BME280;3299;42.004;24.868;2023-01-04T05:28:23;99174.19;;;7.14;95.10
6532;BME280;3299;42.004;24.868;2023-01-04T05:30:52;99072.63;;;6.44;95.85
6532;BME280;3299;42.004;24.868;2023-01-04T05:33:30;99150.91;;;6.97;95.72
6532;BME280;3299;42.004;24.868;2023-01-04T05:35:58;99086.88;;;6.51;95.23
6532;BME280;3299;42.004;24.868;2023-01-04T05:38:24;99140.00;;;6.72;95.98
6532;BME280;3299;42.004;24.868;2023-01-04T05:40:50;99129.13;;;6.66;95.62
6532;BME280;3299;42.004;24.868;2023-01-04T05:43:17;99178.81;;;6.86;96.09
6532;BME280;3299;42.004;24.868;2023-01-04T05:45:47;99186.53;;;6.86;96.40
6532;BME280;3299;42.004;24.868;2023-01-04T05:48:12;99189.75;;;6.91;96.29
6532;BME280;3299;42.004;24.868;2023-01-04T05:50:38;99153.88;;;6.68;96.57
6532;BME280;3299;42.004;24.868;2023-01-04T05:53:05;99196.06;;;6.84;97.58
6532;BME280;3299;42.004;24.868;2023-01-04T05:55:30;99092.38;;;6.22;99.05
6532;BME280;3299;42.004;24.868;2023-01-04T05:57:56;99181.75;;;6.77;99.48
6532;BME280;3299;42.004;24.868;2023-01-04T06:00:21;99173.22;;;6.77;98.45
6532;BME280;3299;42.004;24.868;2023-01-04T06:02:49;99181.00;;;6.75;98.24
6532;BME280;3299;42.004;24.868;2023-01-04T06:05:17;99152.44;;;6.61;97.62
6532;BME280;3299;42.004;24.868;2023-01-04T06:07:42;99095.22;;;6.36;97.04
6532;BME280;3299;42.004;24.868;2023-01-04T06:10:10;99136.69;;;6.49;98.70
6532;BME280;3299;42.004;24.868;2023-01-04T06:12:36;99193.41;;;6.86;99.05
6532;BME280;3299;42.004;24.868;2023-01-04T06:15:02;99159.75;;;6.50;98.42
6532;BME280;3299;42.004;24.868;2023-01-04T06:17:27;99151.00;;;6.54;98.05
6532;BME280;3299;42.004;24.868;2023-01-04T06:19:52;99151.63;;;6.39;98.71
6532;BME280;3299;42.004;24.868;2023-01-04T06:22:18;99118.59;;;6.30;97.64
6532;BME280;3299;42.004;24.868;2023-01-04T06:24:44;99222.16;;;6.75;98.18
6532;BME280;3299;42.004;24.868;2023-01-04T06:27:09;99188.69;;;6.55;98.16
6532;BME280;3299;42.004;24.868;2023-01-04T06:29:34;99212.09;;;6.69;98.46
6532;BME280;3299;42.004;24.868;2023-01-04T06:32:00;99228.19;;;6.74;98.80
6532;BME280;3299;42.004;24.868;2023-01-04T06:34:25;99239.59;;;6.89;97.92
6532;BME280;3299;42.004;24.868;2023-01-04T06:36:51;99222.81;;;6.80;97.13
6532;BME280;3299;42.004;24.868;2023-01-04T06:39:16;99179.00;;;6.40;97.55
6532;BME280;3299;42.004;24.868;2023-01-04T06:41:41;99242.53;;;6.80;97.22
6532;BME280;3299;42.004;24.868;2023-01-04T06:44:07;99225.88;;;6.68;97.75
6532;BME280;3299;42.004;24.868;2023-01-04T06:46:32;99142.63;;;6.29;96.99
6532;BME280;3299;42.004;24.868;2023-01-04T06:48:58;99196.50;;;6.52;96.87
6532;BME280;3299;42.004;24.868;2023-01-04T06:51:23;99196.31;;;6.57;98.19
6532;BME280;3299;42.004;24.868;2023-01-04T06:53:49;99195.91;;;6.67;99.22
6532;BME280;3299;42.004;24.868;2023-01-04T06:56:14;99188.25;;;6.66;98.45
6532;BME280;3299;42.004;24.868;2023-01-04T06:58:40;99240.50;;;7.08;96.00
6532;BME280;3299;42.004;24.868;2023-01-04T07:01:06;99271.72;;;7.20;95.94
6532;BME280;3299;42.004;24.868;2023-01-04T07:03:31;99241.66;;;7.21;95.58
6532;BME280;3299;42.004;24.868;2023-01-04T07:05:57;99187.13;;;6.93;94.45
6532;BME280;3299;42.004;24.868;2023-01-04T07:08:22;99245.34;;;7.35;94.24
6532;BME280;3299;42.004;24.868;2023-01-04T07:10:48;99188.78;;;7.14;93.29
6532;BME280;3299;42.004;24.868;2023-01-04T07:13:13;99244.59;;;7.53;92.52
6532;BME280;3299;42.004;24.868;2023-01-04T07:15:39;99242.59;;;7.40;92.67
6532;BME280;3299;42.004;24.868;2023-01-04T07:18:05;99241.22;;;7.51;92.56
6532;BME280;3299;42.004;24.868;2023-01-04T07:20:30;99249.19;;;7.65;91.90
6532;BME280;3299;42.004;24.868;2023-01-04T07:22:55;99217.00;;;7.55;90.96
6532;BME280;3299;42.004;24.868;2023-01-04T07:25:21;99234.22;;;7.73;89.87
6532;BME280;3299;42.004;24.868;2023-01-04T07:27:53;99194.75;;;7.54;90.45
6532;BME280;3299;42.004;24.868;2023-01-04T07:30:22;99214.94;;;7.63;90.07
6532;BME280;3299;42.004;24.868;2023-01-04T07:32:50;99223.94;;;7.73;89.93
6532;BME280;3299;42.004;24.868;2023-01-04T07:35:15;99176.09;;;7.49;89.22
6532;BME280;3299;42.004;24.868;2023-01-04T07:37:42;99258.69;;;8.02;88.21
6532;BME280;3299;42.004;24.868;2023-01-04T07:40:08;99256.97;;;8.02;88.29
6532;BME280;3299;42.004;24.868;2023-01-04T07:42:34;99209.94;;;7.79;88.43
6532;BME280;3299;42.004;24.868;2023-01-04T07:45:00;99273.34;;;8.20;88.66
6532;BME280;3299;42.004;24.868;2023-01-04T07:47:27;99270.16;;;8.33;87.12
6532;BME280;3299;42.004;24.868;2023-01-04T07:49:52;99253.88;;;8.33;86.45
6532;BME280;3299;42.004;24.868;2023-01-04T07:52:18;99221.06;;;8.16;86.33
6532;BME280;3299;42.004;24.868;2023-01-04T07:54:43;99214.13;;;8.18;86.31
6532;BME280;3299;42.004;24.868;2023-01-04T07:57:08;99234.06;;;8.33;85.56
6532;BME280;3299;42.004;24.868;2023-01-04T07:59:34;99227.13;;;8.35;85.71
6532;BME280;3299;42.004;24.868;2023-01-04T08:01:59;99267.25;;;8.76;85.41
6532;BME280;3299;42.004;24.868;2023-01-04T08:04:24;99262.72;;;8.81;85.08
6532;BME280;3299;42.004;24.868;2023-01-04T08:06:50;99273.97;;;8.97;84.71
6532;BME280;3299;42.004;24.868;2023-01-04T08:09:16;99223.84;;;8.67;83.91
6532;BME280;3299;42.004;24.868;2023-01-04T08:11:45;99214.59;;;8.80;83.32
6532;BME280;3299;42.004;24.868;2023-01-04T08:14:10;99229.34;;;8.95;82.50
6532;BME280;3299;42.004;24.868;2023-01-04T08:16:39;99279.75;;;9.36;82.09
6532;BME280;3299;42.004;24.868;2023-01-04T08:19:07;99283.78;;;9.42;82.10
6532;BME280;3299;42.004;24.868;2023-01-04T08:21:36;99287.22;;;9.42;82.13
6532;BME280;3299;42.004;24.868;2023-01-04T08:24:04;99250.13;;;9.26;81.94
6532;BME280;3299;42.004;24.868;2023-01-04T08:26:30;99264.72;;;9.44;81.68
6532;BME280;3299;42.004;24.868;2023-01-04T08:28:56;99282.31;;;9.70;81.65
6532;BME280;3299;42.004;24.868;2023-01-04T08:31:24;99274.84;;;9.81;81.28
6532;BME280;3299;42.004;24.868;2023-01-04T08:33:51;99287.56;;;10.01;80.84
6532;BME280;3299;42.004;24.868;2023-01-04T08:38:50;99277.06;;;10.21;80.54
6532;BME280;3299;42.004;24.868;2023-01-04T08:41:17;99229.72;;;10.03;79.98
6532;BME280;3299;42.004;24.868;2023-01-04T08:43:43;99284.31;;;10.45;79.27
6532;BME280;3299;42.004;24.868;2023-01-04T08:46:09;99225.41;;;10.19;78.95
6532;BME280;3299;42.004;24.868;2023-01-04T08:48:35;99274.16;;;10.58;77.08
6532;BME280;3299;42.004;24.868;2023-01-04T08:51:03;99246.94;;;10.51;76.96
6532;BME280;3299;42.004;24.868;2023-01-04T08:53:29;99231.56;;;10.48;76.48
6532;BME280;3299;42.004;24.868;2023-01-04T08:55:55;99266.09;;;10.78;75.93
6532;BME280;3299;42.004;24.868;2023-01-04T08:58:21;99276.69;;;10.89;76.10
6532;BME280;3299;42.004;24.868;2023-01-04T09:00:47;99261.75;;;10.94;76.25
6532;BME280;3299;42.004;24.868;2023-01-04T09:03:12;99236.03;;;10.91;78.60
6532;BME280;3299;42.004;24.868;2023-01-04T09:05:38;99256.34;;;11.12;81.13
6532;BME280;3299;42.004;24.868;2023-01-04T09:08:04;99263.50;;;11.23;82.33
6532;BME280;3299;42.004;24.868;2023-01-04T09:10:30;99179.59;;;10.82;82.50
6532;BME280;3299;42.004;24.868;2023-01-04T09:12:55;99245.56;;;11.20;83.13
6532;BME280;3299;42.004;24.868;2023-01-04T09:15:21;99225.28;;;11.12;83.26
6532;BME280;3299;42.004;24.868;2023-01-04T09:17:48;99216.50;;;11.15;83.72
6532;BME280;3299;42.004;24.868;2023-01-04T09:20:13;99245.97;;;11.42;83.09
6532;BME280;3299;42.004;24.868;2023-01-04T09:22:39;99170.84;;;10.98;82.98
6532;BME280;3299;42.004;24.868;2023-01-04T09:25:04;99207.66;;;11.33;82.80
6532;BME280;3299;42.004;24.868;2023-01-04T09:27:31;99214.13;;;11.40;82.65
6532;BME280;3299;42.004;24.868;2023-01-04T09:29:57;99211.47;;;11.41;82.74
6532;BME280;3299;42.004;24.868;2023-01-04T09:32:22;99255.84;;;11.65;82.73
6532;BME280;3299;42.004;24.868;2023-01-04T09:34:48;99206.19;;;11.43;82.71
6532;BME280;3299;42.004;24.868;2023-01-04T09:37:13;99241.94;;;11.66;83.43
6532;BME280;3299;42.004;24.868;2023-01-04T09:39:38;99189.44;;;11.34;83.54
6532;BME280;3299;42.004;24.868;2023-01-04T09:44:47;99196.47;;;11.46;83.83
6532;BME280;3299;42.004;24.868;2023-01-04T09:47:23;99237.59;;;11.80;83.55
6532;BME280;3299;42.004;24.868;2023-01-04T09:49:56;99200.03;;;11.59;82.86
6532;BME280;3299;42.004;24.868;2023-01-04T09:55:22;99154.00;;;11.49;82.44
6532;BME280;3299;42.004;24.868;2023-01-04T09:57:55;99226.03;;;12.00;82.71
6532;BME280;3299;42.004;24.868;2023-01-04T10:00:29;99229.00;;;12.08;81.94
6532;BME280;3299;42.004;24.868;2023-01-04T10:03:02;99234.63;;;12.14;81.79
6532;BME280;3299;42.004;24.868;2023-01-04T10:05:31;99233.59;;;12.17;81.81
6532;BME280;3299;42.004;24.868;2023-01-04T10:07:58;99182.69;;;11.88;81.37
6532;BME280;3299;42.004;24.868;2023-01-04T10:16:43;99213.31;;;12.23;81.57
6532;BME280;3299;42.004;24.868;2023-01-04T10:22:04;99201.69;;;12.29;80.76
6532;BME280;3299;42.004;24.868;2023-01-04T10:33:14;99211.13;;;12.44;81.95
6532;BME280;3299;42.004;24.868;2023-01-04T10:35:43;99159.13;;;12.19;82.02
6532;BME280;3299;42.004;24.868;2023-01-04T10:38:31;99174.94;;;12.28;81.62
6532;BME280;3299;42.004;24.868;2023-01-04T10:41:06;99197.84;;;12.48;81.71
6532;BME280;3299;42.004;24.868;2023-01-04T10:43:55;99188.72;;;12.43;81.48
6532;BME280;3299;42.004;24.868;2023-01-04T10:49:32;99182.63;;;12.56;80.52
6532;BME280;3299;42.004;24.868;2023-01-04T10:52:07;99156.09;;;12.39;81.00
6532;BME280;3299;42.004;24.868;2023-01-04T10:54:41;99207.50;;;12.73;80.77
6532;BME280;3299;42.004;24.868;2023-01-04T10:57:12;99178.22;;;12.71;80.65
6532;BME280;3299;42.004;24.868;2023-01-04T10:59:59;99151.19;;;12.61;80.03
6532;BME280;3299;42.004;24.868;2023-01-04T11:05:17;99188.22;;;12.89;79.82
6532;BME280;3299;42.004;24.868;2023-01-04T11:07:52;99190.44;;;12.95;80.35
6532;BME280;3299;42.004;24.868;2023-01-04T11:12:51;99180.69;;;12.99;80.33
6532;BME280;3299;42.004;24.868;2023-01-04T11:15:16;99146.75;;;12.88;80.01
6532;BME280;3299;42.004;24.868;2023-01-04T11:17:42;99184.34;;;13.09;80.43
6532;BME280;3299;42.004;24.868;2023-01-04T11:20:08;99172.28;;;13.08;80.11
6532;BME280;3299;42.004;24.868;2023-01-04T11:22:40;99181.03;;;13.19;79.84
6532;BME280;3299;42.004;24.868;2023-01-04T11:25:12;99183.75;;;13.18;79.93
6532;BME280;3299;42.004;24.868;2023-01-04T11:28:17;99162.72;;;13.08;80.33
6532;BME280;3299;42.004;24.868;2023-01-04T11:34:02;99171.28;;;13.35;79.96
6532;BME280;3299;42.004;24.868;2023-01-04T11:36:35;99172.00;;;13.37;80.07
6532;BME280;3299;42.004;24.868;2023-01-04T11:39:03;99180.09;;;13.33;79.13
6532;BME280;3299;42.004;24.868;2023-01-04T11:41:28;99174.59;;;13.37;79.69
6532;BME280;3299;42.004;24.868;2023-01-04T11:44:02;99086.41;;;12.84;79.48
6532;BME280;3299;42.004;24.868;2023-01-04T11:46:29;99160.56;;;13.27;80.34
6532;BME280;3299;42.004;24.868;2023-01-04T11:48:55;99127.81;;;13.00;80.11
6532;BME280;3299;42.004;24.868;2023-01-04T11:56:23;99131.28;;;12.86;81.81
6532;BME280;3299;42.004;24.868;2023-01-04T12:01:31;99126.38;;;12.82;82.01
6532;BME280;3299;42.004;24.868;2023-01-04T12:03:57;99172.47;;;13.05;82.69
6532;BME280;3299;42.004;24.868;2023-01-04T12:06:40;99157.53;;;12.96;82.85
6532;BME280;3299;42.004;24.868;2023-01-04T12:09:13;99151.03;;;12.89;83.54
6532;BME280;3299;42.004;24.868;2023-01-04T12:11:41;99173.41;;;13.04;83.36
6532;BME280;3299;42.004;24.868;2023-01-04T12:14:18;99131.28;;;12.86;83.00
6532;BME280;3299;42.004;24.868;2023-01-04T12:19:20;99166.47;;;13.17;82.25
6532;BME280;3299;42.004;24.868;2023-01-04T12:21:52;99167.75;;;13.24;81.94
6532;BME280;3299;42.004;24.868;2023-01-04T12:24:21;99173.34;;;13.18;82.10
6532;BME280;3299;42.004;24.868;2023-01-04T12:26:48;99176.44;;;13.23;81.53
6532;BME280;3299;42.004;24.868;2023-01-04T12:31:47;99179.47;;;13.29;79.04
6532;BME280;3299;42.004;24.868;2023-01-04T12:47:01;99171.38;;;13.34;78.15
6532;BME280;3299;42.004;24.868;2023-01-04T12:49:59;99158.78;;;13.28;78.07
6532;BME280;3299;42.004;24.868;2023-01-04T12:54:58;99129.25;;;13.04;77.62
6532;BME280;3299;42.004;24.868;2023-01-04T12:57:30;99175.25;;;13.41;76.87
6532;BME280;3299;42.004;24.868;2023-01-04T13:00:15;99121.28;;;13.07;77.13
6532;BME280;3299;42.004;24.868;2023-01-04T13:02:44;99174.81;;;13.34;77.15
6532;BME280;3299;42.004;24.868;2023-01-04T13:08:01;99169.81;;;13.44;76.01
6532;BME280;3299;42.004;24.868;2023-01-04T13:10:35;99161.50;;;13.39;75.59
6532;BME280;3299;42.004;24.868;2023-01-04T13:18:44;99166.38;;;13.31;76.12
6532;BME280;3299;42.004;24.868;2023-01-04T13:21:28;99189.56;;;13.34;76.25
6532;BME280;3299;42.004;24.868;2023-01-04T13:24:32;99183.47;;;13.35;76.10
6532;BME280;3299;42.004;24.868;2023-01-04T13:27:12;99123.13;;;13.05;75.99
6532;BME280;3299;42.004;24.868;2023-01-04T13:29:39;99173.13;;;13.21;77.28
6532;BME280;3299;42.004;24.868;2023-01-04T13:34:49;99136.28;;;12.89;77.46
6532;BME280;3299;42.004;24.868;2023-01-04T13:37:28;99139.09;;;12.86;77.88
6532;BME280;3299;42.004;24.868;2023-01-04T13:40:20;99174.59;;;13.00;78.49
6532;BME280;3299;42.004;24.868;2023-01-04T13:42:48;99128.13;;;12.69;79.06
6532;BME280;3299;42.004;24.868;2023-01-04T13:47:57;99172.78;;;13.00;79.32
6532;BME280;3299;42.004;24.868;2023-01-04T13:50:58;99176.56;;;13.09;78.90
6532;BME280;3299;42.004;24.868;2023-01-04T13:53:26;99180.69;;;12.99;79.33
6532;BME280;3299;42.004;24.868;2023-01-04T13:55:54;99182.72;;;12.94;79.26
6532;BME280;3299;42.004;24.868;2023-01-04T13:58:28;99128.34;;;12.66;79.35
6532;BME280;3299;42.004;24.868;2023-01-04T14:00:58;99173.56;;;12.88;79.42
6532;BME280;3299;42.004;24.868;2023-01-04T14:03:39;99179.16;;;12.82;80.58
6532;BME280;3299;42.004;24.868;2023-01-04T14:11:01;99184.44;;;12.68;81.15
6532;BME280;3299;42.004;24.868;2023-01-04T14:13:27;99185.25;;;12.69;81.06
6532;BME280;3299;42.004;24.868;2023-01-04T14:16:25;99176.19;;;12.62;81.57
6532;BME280;3299;42.004;24.868;2023-01-04T14:18:50;99177.94;;;12.61;81.98
6532;BME280;3299;42.004;24.868;2023-01-04T14:21:16;99177.78;;;12.64;81.00
6532;BME280;3299;42.004;24.868;2023-01-04T14:23:42;99183.06;;;12.63;81.86
6532;BME280;3299;42.004;24.868;2023-01-04T14:26:28;99189.56;;;12.56;82.21
6532;BME280;3299;42.004;24.868;2023-01-04T14:28:53;99136.28;;;12.24;83.27
6532;BME280;3299;42.004;24.868;2023-01-04T14:31:19;99179.25;;;12.42;84.18
6532;BME280;3299;42.004;24.868;2023-01-04T14:33:48;99175.19;;;12.38;86.18
6532;BME280;3299;42.004;24.868;2023-01-04T14:36:18;99188.88;;;12.40;86.82
6532;BME280;3299;42.004;24.868;2023-01-04T14:39:08;99189.66;;;12.28;87.53
6532;BME280;3299;42.004;24.868;2023-01-04T14:41:41;99145.34;;;12.04;88.27
6532;BME280;3299;42.004;24.868;2023-01-04T14:46:35;99195.16;;;12.09;88.93
6532;BME280;3299;42.004;24.868;2023-01-04T14:49:01;99186.56;;;11.95;89.41
6532;BME280;3299;42.004;24.868;2023-01-04T14:51:36;99195.66;;;11.88;89.74
6532;BME280;3299;42.004;24.868;2023-01-04T14:54:05;99201.84;;;11.85;89.77
6532;BME280;3299;42.004;24.868;2023-01-04T14:56:31;99192.06;;;11.76;89.87
6532;BME280;3299;42.004;24.868;2023-01-04T14:58:57;99202.53;;;11.61;90.22
6532;BME280;3299;42.004;24.868;2023-01-04T15:01:22;99153.88;;;11.22;90.93
6532;BME280;3299;42.004;24.868;2023-01-04T15:03:48;99205.06;;;11.47;91.53
6532;BME280;3299;42.004;24.868;2023-01-04T15:06:13;99195.44;;;11.35;91.52
6532;BME280;3299;42.004;24.868;2023-01-04T15:08:38;99195.50;;;11.19;92.77
6532;BME280;3299;42.004;24.868;2023-01-04T15:11:04;99214.28;;;11.23;93.12
6532;BME280;3299;42.004;24.868;2023-01-04T15:13:29;99207.78;;;11.16;93.85
6532;BME280;3299;42.004;24.868;2023-01-04T15:15:56;99156.03;;;10.57;95.59
6532;BME280;3299;42.004;24.868;2023-01-04T15:18:22;99207.91;;;10.85;95.74
6532;BME280;3299;42.004;24.868;2023-01-04T15:20:47;99212.16;;;10.86;95.60
6532;BME280;3299;42.004;24.868;2023-01-04T15:23:12;99219.94;;;10.86;95.95
6532;BME280;3299;42.004;24.868;2023-01-04T15:25:39;99170.13;;;10.51;95.91
6532;BME280;3299;42.004;24.868;2023-01-04T15:28:05;99224.56;;;10.65;96.90
6532;BME280;3299;42.004;24.868;2023-01-04T15:30:30;99173.09;;;10.30;96.95
6532;BME280;3299;42.004;24.868;2023-01-04T15:32:56;99232.56;;;10.45;97.69
6532;BME280;3299;42.004;24.868;2023-01-04T15:35:21;99180.81;;;9.99;98.92